sensor_id;sensor_type;location;lat;lon;timestamp;temperature;humidity
47520;DHT22;33252;48.122;11.538;2023-03-24T00:01:15;12.70;92.80
47520;DHT22;33252;48.122;11.538;2023-03-24T00:03:41;12.60;92.90
47520;DHT22;33252;48.122;11.538;2023-03-24T00:06:10;12.60;92.90
47520;DHT22;33252;48.122;11.538;2023-03-24T00:08:38;12.60;92.90
47520;DHT22;33252;48.122;11.538;2023-03-24T00:11:07;12.60;92.90
47520;DHT22;33252;48.122;11.538;2023-03-24T00:13:34;12.60;92.90
47520;DHT22;33252;48.122;11.538;2023-03-24T00:16:05;12.70;92.90
47520;DHT22;33252;48.122;11.538;2023-03-24T00:18:31;12.60;93.00
47520;DHT22;33252;48.122;11.538;2023-03-24T00:20:57;12.50;93.30
47520;DHT22;33252;48.122;11.538;2023-03-24T00:23:27;12.60;93.10
47520;DHT22;33252;48.122;11.538;2023-03-24T00:26:05;12.50;92.90
47520;DHT22;33252;48.122;11.538;2023-03-24T00:28:33;12.50;92.80
47520;DHT22;33252;48.122;11.538;2023-03-24T00:31:00;12.40;92.80
47520;DHT22;33252;48.122;11.538;2023-03-24T00:33:28;12.50;92.60
47520;DHT22;33252;48.122;11.538;2023-03-24T00:35:58;12.50;92.50
47520;DHT22;33252;48.122;11.538;2023-03-24T00:38:23;12.50;92.50
47520;DHT22;33252;48.122;11.538;2023-03-24T00:40:49;12.60;92.40
47520;DHT22;33252;48.122;11.538;2023-03-24T00:43:16;12.50;92.40
47520;DHT22;33252;48.122;11.538;2023-03-24T00:45:42;12.50;92.20
47520;DHT22;33252;48.122;11.538;2023-03-24T00:48:15;12.50;92.20
47520;DHT22;33252;48.122;11.538;2023-03-24T00:50:46;12.50;92.00
47520;DHT22;33252;48.122;11.538;2023-03-24T00:53:14;12.60;92.00
47520;DHT22;33252;48.122;11.538;2023-03-24T00:55:41;12.50;91.90
47520;DHT22;33252;48.122;11.538;2023-03-24T00:58:07;12.50;92.00
47520;DHT22;33252;48.122;11.538;2023-03-24T01:00:32;12.50;92.10
47520;DHT22;33252;48.122;11.538;2023-03-24T01:02:59;12.50;91.90
47520;DHT22;33252;48.122;11.538;2023-03-24T01:05:29;12.50;92.00
47520;DHT22;33252;48.122;11.538;2023-03-24T01:07:57;12.50;92.00
47520;DHT22;33252;48.122;11.538;2023-03-24T01:10:23;12.50;92.10
47520;DHT22;33252;48.122;11.538;2023-03-24T01:12:52;12.50;92.00
47520;DHT22;33252;48.122;11.538;2023-03-24T01:15:20;12.50;92.10
47520;DHT22;33252;48.122;11.538;2023-03-24T01:17:46;12.50;92.00
47520;DHT22;33252;48.122;11.538;2023-03-24T01:20:13;12.40;92.00
47520;DHT22;33252;48.122;11.538;2023-03-24T01:22:40;12.40;92.00
47520;DHT22;33252;48.122;11.538;2023-03-24T01:25:12;12.40;92.10
47520;DHT22;33252;48.122;11.538;2023-03-24T01:27:40;12.40;92.00
47520;DHT22;33252;48.122;11.538;2023-03-24T01:30:06;12.30;92.20
47520;DHT22;33252;48.122;11.538;2023-03-24T01:32:32;12.40;92.20
47520;DHT22;33252;48.122;11.538;2023-03-24T01:34:58;12.30;92.00
47520;DHT22;33252;48.122;11.538;2023-03-24T01:37:23;12.40;91.80
47520;DHT22;33252;48.122;11.538;2023-03-24T01:39:50;12.50;91.40
47520;DHT22;33252;48.122;11.538;2023-03-24T01:42:18;12.50;91.60
47520;DHT22;33252;48.122;11.538;2023-03-24T01:44:46;12.50;91.50
47520;DHT22;33252;48.122;11.538;2023-03-24T01:47:13;12.50;91.70
47520;DHT22;33252;48.122;11.538;2023-03-24T01:50:00;12.40;92.10
47520;DHT22;33252;48.122;11.538;2023-03-24T01:52:30;12.40;92.20
47520;DHT22;33252;48.122;11.538;2023-03-24T01:55:12;12.40;92.10
47520;DHT22;33252;48.122;11.538;2023-03-24T01:57:47;12.30;92.20
47520;DHT22;33252;48.122;11.538;2023-03-24T02:00:16;12.40;92.40
47520;DHT22;33252;48.122;11.538;2023-03-24T02:02:48;12.30;92.10
47520;DHT22;33252;48.122;11.538;2023-03-24T02:05:21;12.40;92.00
47520;DHT22;33252;48.122;11.538;2023-03-24T02:10:44;12.40;92.00
47520;DHT22;33252;48.122;11.538;2023-03-24T02:13:10;12.50;92.30
47520;DHT22;33252;48.122;11.538;2023-03-24T02:15:50;12.40;92.50
47520;DHT22;33252;48.122;11.538;2023-03-24T02:18:25;12.40;92.40
47520;DHT22;33252;48.122;11.538;2023-03-24T02:24:00;12.40;92.30
47520;DHT22;33252;48.122;11.538;2023-03-24T02:46:19;12.50;92.50
47520;DHT22;33252;48.122;11.538;2023-03-24T02:48:58;12.50;92.80
47520;DHT22;33252;48.122;11.538;2023-03-24T02:51:38;12.50;93.00
47520;DHT22;33252;48.122;11.538;2023-03-24T03:02:04;12.30;93.50
47520;DHT22;33252;48.122;11.538;2023-03-24T03:04:37;12.40;94.10
47520;DHT22;33252;48.122;11.538;2023-03-24T03:07:06;12.20;94.20
47520;DHT22;33252;48.122;11.538;2023-03-24T03:09:43;12.30;94.30
47520;DHT22;33252;48.122;11.538;2023-03-24T03:12:13;12.20;94.20
47520;DHT22;33252;48.122;11.538;2023-03-24T03:14:45;12.20;94.30
47520;DHT22;33252;48.122;11.538;2023-03-24T03:17:18;12.20;94.40
47520;DHT22;33252;48.122;11.538;2023-03-24T03:20:11;12.20;94.30
47520;DHT22;33252;48.122;11.538;2023-03-24T03:22:45;12.10;94.80
47520;DHT22;33252;48.122;11.538;2023-03-24T03:25:15;12.20;94.40
47520;DHT22;33252;48.122;11.538;2023-03-24T03:27:45;12.20;94.30
47520;DHT22;33252;48.122;11.538;2023-03-24T03:33:18;12.20;94.50
47520;DHT22;33252;48.122;11.538;2023-03-24T03:36:05;12.10;94.50
47520;DHT22;33252;48.122;11.538;2023-03-24T03:38:46;12.10;94.80
47520;DHT22;33252;48.122;11.538;2023-03-24T03:41:14;12.20;94.60
47520;DHT22;33252;48.122;11.538;2023-03-24T03:43:43;12.20;94.60
47520;DHT22;33252;48.122;11.538;2023-03-24T03:46:09;12.10;94.70
47520;DHT22;33252;48.122;11.538;2023-03-24T03:48:36;12.00;94.90
47520;DHT22;33252;48.122;11.538;2023-03-24T03:51:02;12.00;95.00
47520;DHT22;33252;48.122;11.538;2023-03-24T03:53:35;12.00;95.30
47520;DHT22;33252;48.122;11.538;2023-03-24T03:56:03;11.90;95.30
47520;DHT22;33252;48.122;11.538;2023-03-24T03:58:29;11.80;95.40
47520;DHT22;33252;48.122;11.538;2023-03-24T04:00:55;11.80;95.40
47520;DHT22;33252;48.122;11.538;2023-03-24T04:06:04;11.70;95.60
47520;DHT22;33252;48.122;11.538;2023-03-24T04:11:31;11.80;95.40
47520;DHT22;33252;48.122;11.538;2023-03-24T04:20:02;11.90;94.80
47520;DHT22;33252;48.122;11.538;2023-03-24T04:28:09;12.00;94.90
47520;DHT22;33252;48.122;11.538;2023-03-24T04:30:47;12.00;94.60
47520;DHT22;33252;48.122;11.538;2023-03-24T04:33:23;12.10;94.60
47520;DHT22;33252;48.122;11.538;2023-03-24T04:36:12;12.20;94.60
47520;DHT22;33252;48.122;11.538;2023-03-24T04:38:43;12.10;94.50
47520;DHT22;33252;48.122;11.538;2023-03-24T04:41:10;12.10;94.50
47520;DHT22;33252;48.122;11.538;2023-03-24T04:43:37;12.10;94.40
47520;DHT22;33252;48.122;11.538;2023-03-24T04:46:04;12.20;94.10
47520;DHT22;33252;48.122;11.538;2023-03-24T04:48:31;12.20;93.80
47520;DHT22;33252;48.122;11.538;2023-03-24T04:51:02;12.20;93.70
47520;DHT22;33252;48.122;11.538;2023-03-24T04:53:29;12.20;93.50
47520;DHT22;33252;48.122;11.538;2023-03-24T04:56:00;12.30;93.50
47520;DHT22;33252;48.122;11.538;2023-03-24T04:58:27;12.30;93.30
47520;DHT22;33252;48.122;11.538;2023-03-24T05:00:54;12.30;93.20
47520;DHT22;33252;48.122;11.538;2023-03-24T05:03:20;12.30;93.00
47520;DHT22;33252;48.122;11.538;2023-03-24T05:05:48;12.30;92.70
47520;DHT22;33252;48.122;11.538;2023-03-24T05:08:15;12.40;92.80
47520;DHT22;33252;48.122;11.538;2023-03-24T05:10:41;12.40;92.60
47520;DHT22;33252;48.122;11.538;2023-03-24T05:13:07;12.40;92.70
47520;DHT22;33252;48.122;11.538;2023-03-24T05:15:34;12.40;92.90
47520;DHT22;33252;48.122;11.538;2023-03-24T05:17:59;12.40;93.30
47520;DHT22;33252;48.122;11.538;2023-03-24T05:20:25;12.40;93.70
47520;DHT22;33252;48.122;11.538;2023-03-24T05:22:52;12.40;94.30
47520;DHT22;33252;48.122;11.538;2023-03-24T05:25:18;12.30;94.40
47520;DHT22;33252;48.122;11.538;2023-03-24T05:27:44;12.20;95.30
47520;DHT22;33252;48.122;11.538;2023-03-24T05:30:11;12.20;95.50
47520;DHT22;33252;48.122;11.538;2023-03-24T05:32:37;12.10;95.50
47520;DHT22;33252;48.122;11.538;2023-03-24T05:35:03;12.30;94.70
47520;DHT22;33252;48.122;11.538;2023-03-24T05:37:29;12.40;94.50
47520;DHT22;33252;48.122;11.538;2023-03-24T05:39:55;12.40;94.40
47520;DHT22;33252;48.122;11.538;2023-03-24T05:42:21;12.50;94.70
47520;DHT22;33252;48.122;11.538;2023-03-24T05:44:46;12.50;95.00
47520;DHT22;33252;48.122;11.538;2023-03-24T05:47:12;12.40;95.70
47520;DHT22;33252;48.122;11.538;2023-03-24T05:49:41;12.30;97.20
47520;DHT22;33252;48.122;11.538;2023-03-24T05:52:08;12.30;96.90
47520;DHT22;33252;48.122;11.538;2023-03-24T05:54:34;12.30;96.60
47520;DHT22;33252;48.122;11.538;2023-03-24T05:57:01;12.20;96.40
47520;DHT22;33252;48.122;11.538;2023-03-24T05:59:28;12.20;97.40
47520;DHT22;33252;48.122;11.538;2023-03-24T06:01:53;12.20;97.50
47520;DHT22;33252;48.122;11.538;2023-03-24T06:04:23;12.20;97.90
47520;DHT22;33252;48.122;11.538;2023-03-24T06:06:49;12.20;97.80
47520;DHT22;33252;48.122;11.538;2023-03-24T06:09:15;12.20;97.70
47520;DHT22;33252;48.122;11.538;2023-03-24T06:11:44;12.20;97.40
47520;DHT22;33252;48.122;11.538;2023-03-24T06:14:09;12.10;98.70
47520;DHT22;33252;48.122;11.538;2023-03-24T06:16:35;12.10;99.20
47520;DHT22;33252;48.122;11.538;2023-03-24T06:19:05;12.10;98.20
47520;DHT22;33252;48.122;11.538;2023-03-24T06:21:32;12.10;98.20
47520;DHT22;33252;48.122;11.538;2023-03-24T06:23:58;12.10;98.60
47520;DHT22;33252;48.122;11.538;2023-03-24T06:26:24;12.10;98.10
47520;DHT22;33252;48.122;11.538;2023-03-24T06:28:49;12.20;97.70
47520;DHT22;33252;48.122;11.538;2023-03-24T06:31:18;12.20;97.80
47520;DHT22;33252;48.122;11.538;2023-03-24T06:33:46;12.30;97.80
47520;DHT22;33252;48.122;11.538;2023-03-24T06:36:13;12.20;97.80
47520;DHT22;33252;48.122;11.538;2023-03-24T06:38:39;12.20;98.20
47520;DHT22;33252;48.122;11.538;2023-03-24T06:41:06;12.20;98.30
47520;DHT22;33252;48.122;11.538;2023-03-24T06:43:33;12.20;97.90
47520;DHT22;33252;48.122;11.538;2023-03-24T06:45:59;12.30;98.30
47520;DHT22;33252;48.122;11.538;2023-03-24T06:48:25;12.30;97.40
47520;DHT22;33252;48.122;11.538;2023-03-24T06:50:51;12.20;96.60
47520;DHT22;33252;48.122;11.538;2023-03-24T06:53:17;12.20;96.20
47520;DHT22;33252;48.122;11.538;2023-03-24T06:55:43;12.20;96.20
47520;DHT22;33252;48.122;11.538;2023-03-24T06:58:08;12.20;96.30
47520;DHT22;33252;48.122;11.538;2023-03-24T07:00:34;12.20;96.40
47520;DHT22;33252;48.122;11.538;2023-03-24T07:03:01;12.10;96.50
47520;DHT22;33252;48.122;11.538;2023-03-24T07:05:29;12.10;96.60
47520;DHT22;33252;48.122;11.538;2023-03-24T07:07:55;12.10;96.50
47520;DHT22;33252;48.122;11.538;2023-03-24T07:10:22;12.10;96.90
47520;DHT22;33252;48.122;11.538;2023-03-24T07:12:47;12.10;96.50
47520;DHT22;33252;48.122;11.538;2023-03-24T07:15:13;12.20;96.60
47520;DHT22;33252;48.122;11.538;2023-03-24T07:17:41;12.20;96.50
47520;DHT22;33252;48.122;11.538;2023-03-24T07:20:07;12.20;96.80
47520;DHT22;33252;48.122;11.538;2023-03-24T07:22:34;12.20;97.20
47520;DHT22;33252;48.122;11.538;2023-03-24T07:25:03;12.20;96.90
47520;DHT22;33252;48.122;11.538;2023-03-24T07:27:30;12.20;97.50
47520;DHT22;33252;48.122;11.538;2023-03-24T07:29:58;12.20;97.70
47520;DHT22;33252;48.122;11.538;2023-03-24T07:32:24;12.20;97.30
47520;DHT22;33252;48.122;11.538;2023-03-24T07:34:49;12.20;98.30
47520;DHT22;33252;48.122;11.538;2023-03-24T07:37:15;12.10;98.30
47520;DHT22;33252;48.122;11.538;2023-03-24T07:39:41;12.20;97.90
47520;DHT22;33252;48.122;11.538;2023-03-24T07:42:07;12.20;97.00
47520;DHT22;33252;48.122;11.538;2023-03-24T07:44:32;12.20;97.50
47520;DHT22;33252;48.122;11.538;2023-03-24T07:46:58;12.30;98.10
47520;DHT22;33252;48.122;11.538;2023-03-24T07:49:24;12.30;98.40
47520;DHT22;33252;48.122;11.538;2023-03-24T07:51:50;12.30;97.30
47520;DHT22;33252;48.122;11.538;2023-03-24T07:54:16;12.30;97.90
47520;DHT22;33252;48.122;11.538;2023-03-24T07:56:41;12.40;97.00
47520;DHT22;33252;48.122;11.538;2023-03-24T07:59:07;12.50;97.10
47520;DHT22;33252;48.122;11.538;2023-03-24T08:01:35;12.60;96.00
47520;DHT22;33252;48.122;11.538;2023-03-24T08:04:02;12.70;95.50
47520;DHT22;33252;48.122;11.538;2023-03-24T08:06:27;12.80;95.30
47520;DHT22;33252;48.122;11.538;2023-03-24T08:08:54;13.00;94.30
47520;DHT22;33252;48.122;11.538;2023-03-24T08:11:19;13.20;94.20
47520;DHT22;33252;48.122;11.538;2023-03-24T08:13:45;13.20;94.30
47520;DHT22;33252;48.122;11.538;2023-03-24T08:16:11;13.30;94.30
47520;DHT22;33252;48.122;11.538;2023-03-24T08:18:37;13.40;93.90
47520;DHT22;33252;48.122;11.538;2023-03-24T08:21:02;13.50;93.70
47520;DHT22;33252;48.122;11.538;2023-03-24T08:23:28;13.60;93.60
47520;DHT22;33252;48.122;11.538;2023-03-24T08:25:54;13.60;93.70
47520;DHT22;33252;48.122;11.538;2023-03-24T08:28:20;13.70;93.50
47520;DHT22;33252;48.122;11.538;2023-03-24T08:30:46;13.70;93.40
47520;DHT22;33252;48.122;11.538;2023-03-24T08:33:13;13.70;93.80
47520;DHT22;33252;48.122;11.538;2023-03-24T08:35:39;13.80;93.60
47520;DHT22;33252;48.122;11.538;2023-03-24T08:38:06;13.70;93.60
47520;DHT22;33252;48.122;11.538;2023-03-24T08:40:33;13.70;93.90
47520;DHT22;33252;48.122;11.538;2023-03-24T08:43:01;13.70;94.00
47520;DHT22;33252;48.122;11.538;2023-03-24T08:45:30;13.70;93.80
47520;DHT22;33252;48.122;11.538;2023-03-24T08:47:59;13.70;93.70
47520;DHT22;33252;48.122;11.538;2023-03-24T08:50:28;13.70;94.00
47520;DHT22;33252;48.122;11.538;2023-03-24T08:52:56;13.70;94.00
47520;DHT22;33252;48.122;11.538;2023-03-24T08:55:23;13.80;94.50
47520;DHT22;33252;48.122;11.538;2023-03-24T08:57:50;13.80;94.20
47520;DHT22;33252;48.122;11.538;2023-03-24T09:00:17;13.70;94.20
47520;DHT22;33252;48.122;11.538;2023-03-24T09:02:48;13.80;94.10
47520;DHT22;33252;48.122;11.538;2023-03-24T09:05:15;13.80;94.00
47520;DHT22;33252;48.122;11.538;2023-03-24T09:07:44;13.90;93.80
47520;DHT22;33252;48.122;11.538;2023-03-24T09:10:10;13.80;94.20
47520;DHT22;33252;48.122;11.538;2023-03-24T09:12:37;13.80;94.60
47520;DHT22;33252;48.122;11.538;2023-03-24T09:15:05;13.80;94.90
47520;DHT22;33252;48.122;11.538;2023-03-24T09:17:31;13.80;94.70
47520;DHT22;33252;48.122;11.538;2023-03-24T09:19:57;13.90;94.60
47520;DHT22;33252;48.122;11.538;2023-03-24T09:22:23;13.90;94.90
47520;DHT22;33252;48.122;11.538;2023-03-24T09:24:49;13.90;94.70
47520;DHT22;33252;48.122;11.538;2023-03-24T09:27:18;13.90;95.10
47520;DHT22;33252;48.122;11.538;2023-03-24T09:29:44;13.80;95.00
47520;DHT22;33252;48.122;11.538;2023-03-24T09:32:10;13.80;95.10
47520;DHT22;33252;48.122;11.538;2023-03-24T09:34:36;13.90;95.50
47520;DHT22;33252;48.122;11.538;2023-03-24T09:37:04;13.80;95.60
47520;DHT22;33252;48.122;11.538;2023-03-24T09:39:29;13.80;96.10
47520;DHT22;33252;48.122;11.538;2023-03-24T09:41:55;13.70;96.50
47520;DHT22;33252;48.122;11.538;2023-03-24T09:44:36;13.60;96.60
47520;DHT22;33252;48.122;11.538;2023-03-24T09:49:48;13.40;97.70
47520;DHT22;33252;48.122;11.538;2023-03-24T09:52:20;13.40;98.10
47520;DHT22;33252;48.122;11.538;2023-03-24T09:54:58;13.30;97.90
47520;DHT22;33252;48.122;11.538;2023-03-24T09:57:40;13.20;97.90
47520;DHT22;33252;48.122;11.538;2023-03-24T10:00:26;13.20;98.60
47520;DHT22;33252;48.122;11.538;2023-03-24T10:02:53;13.10;98.50
47520;DHT22;33252;48.122;11.538;2023-03-24T10:05:29;13.10;98.70
47520;DHT22;33252;48.122;11.538;2023-03-24T10:14:02;13.00;99.00
47520;DHT22;33252;48.122;11.538;2023-03-24T10:16:47;13.10;99.80
47520;DHT22;33252;48.122;11.538;2023-03-24T10:19:25;13.10;99.40
47520;DHT22;33252;48.122;11.538;2023-03-24T10:22:05;13.10;99.70
47520;DHT22;33252;48.122;11.538;2023-03-24T10:27:21;13.10;99.50
47520;DHT22;33252;48.122;11.538;2023-03-24T10:29:53;13.10;99.60
47520;DHT22;33252;48.122;11.538;2023-03-24T10:32:24;13.10;99.20
47520;DHT22;33252;48.122;11.538;2023-03-24T10:34:58;13.10;98.90
47520;DHT22;33252;48.122;11.538;2023-03-24T10:37:31;13.10;98.90
47520;DHT22;33252;48.122;11.538;2023-03-24T10:39:59;13.10;99.80
47520;DHT22;33252;48.122;11.538;2023-03-24T10:42:29;13.20;98.80
47520;DHT22;33252;48.122;11.538;2023-03-24T10:44:56;13.20;99.50
47520;DHT22;33252;48.122;11.538;2023-03-24T10:47:25;13.20;98.90
47520;DHT22;33252;48.122;11.538;2023-03-24T10:52:18;13.40;98.40
47520;DHT22;33252;48.122;11.538;2023-03-24T10:54:54;13.40;98.70
47520;DHT22;33252;48.122;11.538;2023-03-24T10:57:21;13.40;98.60
47520;DHT22;33252;48.122;11.538;2023-03-24T10:59:55;13.20;98.60
47520;DHT22;33252;48.122;11.538;2023-03-24T11:02:23;13.20;98.80
47520;DHT22;33252;48.122;11.538;2023-03-24T11:04:55;13.20;98.20
47520;DHT22;33252;48.122;11.538;2023-03-24T11:07:23;13.20;98.60
47520;DHT22;33252;48.122;11.538;2023-03-24T11:12:29;13.20;97.90
47520;DHT22;33252;48.122;11.538;2023-03-24T11:17:43;13.10;98.60
47520;DHT22;33252;48.122;11.538;2023-03-24T11:20:42;13.00;99.10
47520;DHT22;33252;48.122;11.538;2023-03-24T11:25:37;12.90;99.20
47520;DHT22;33252;48.122;11.538;2023-03-24T11:28:25;12.80;99.90
47520;DHT22;33252;48.122;11.538;2023-03-24T11:30:53;12.50;99.90
47520;DHT22;33252;48.122;11.538;2023-03-24T11:33:22;12.40;99.90
47520;DHT22;33252;48.122;11.538;2023-03-24T11:35:51;12.30;99.90
47520;DHT22;33252;48.122;11.538;2023-03-24T11:38:18;12.40;99.90
47520;DHT22;33252;48.122;11.538;2023-03-24T11:40:54;12.50;99.90
47520;DHT22;33252;48.122;11.538;2023-03-24T11:43:22;12.60;99.90
47520;DHT22;33252;48.122;11.538;2023-03-24T11:46:06;12.80;99.90
47520;DHT22;33252;48.122;11.538;2023-03-24T11:48:41;13.00;99.90
47520;DHT22;33252;48.122;11.538;2023-03-24T11:51:27;13.10;99.90
47520;DHT22;33252;48.122;11.538;2023-03-24T11:53:55;13.10;99.90
47520;DHT22;33252;48.122;11.538;2023-03-24T11:59:02;13.30;99.90
47520;DHT22;33252;48.122;11.538;2023-03-24T12:01:37;13.40;99.90
47520;DHT22;33252;48.122;11.538;2023-03-24T12:09:37;13.80;99.90
47520;DHT22;33252;48.122;11.538;2023-03-24T12:12:37;14.00;99.90
47520;DHT22;33252;48.122;11.538;2023-03-24T12:18:06;14.20;99.90
47520;DHT22;33252;48.122;11.538;2023-03-24T12:20:43;14.30;99.90
47520;DHT22;33252;48.122;11.538;2023-03-24T12:23:21;14.50;99.40
47520;DHT22;33252;48.122;11.538;2023-03-24T12:54:49;14.80;96.00
47520;DHT22;33252;48.122;11.538;2023-03-24T12:57:19;14.90;95.60
47520;DHT22;33252;48.122;11.538;2023-03-24T12:59:47;14.90;95.00
47520;DHT22;33252;48.122;11.538;2023-03-24T13:02:24;15.00;95.30
47520;DHT22;33252;48.122;11.538;2023-03-24T13:04:54;15.00;94.90
47520;DHT22;33252;48.122;11.538;2023-03-24T13:07:24;15.00;95.40
47520;DHT22;33252;48.122;11.538;2023-03-24T13:15:15;14.80;95.30
47520;DHT22;33252;48.122;11.538;2023-03-24T13:17:52;14.80;96.20
47520;DHT22;33252;48.122;11.538;2023-03-24T13:20:33;14.60;96.60
47520;DHT22;33252;48.122;11.538;2023-03-24T13:26:12;14.20;98.00
47520;DHT22;33252;48.122;11.538;2023-03-24T13:39:43;14.10;96.40
47520;DHT22;33252;48.122;11.538;2023-03-24T13:42:34;14.00;96.30
47520;DHT22;33252;48.122;11.538;2023-03-24T13:45:04;13.90;95.40
47520;DHT22;33252;48.122;11.538;2023-03-24T13:50:51;13.80;96.00
47520;DHT22;33252;48.122;11.538;2023-03-24T13:53:17;13.80;96.40
47520;DHT22;33252;48.122;11.538;2023-03-24T13:55:50;13.80;97.10
47520;DHT22;33252;48.122;11.538;2023-03-24T13:58:25;13.60;97.00
47520;DHT22;33252;48.122;11.538;2023-03-24T14:01:13;13.60;97.20
47520;DHT22;33252;48.122;11.538;2023-03-24T14:03:45;13.60;96.90
47520;DHT22;33252;48.122;11.538;2023-03-24T14:06:16;13.50;97.40
47520;DHT22;33252;48.122;11.538;2023-03-24T14:08:54;13.40;97.30
47520;DHT22;33252;48.122;11.538;2023-03-24T14:22:28;13.40;97.80
47520;DHT22;33252;48.122;11.538;2023-03-24T14:25:17;13.30;97.50
47520;DHT22;33252;48.122;11.538;2023-03-24T14:27:46;13.30;97.60
47520;DHT22;33252;48.122;11.538;2023-03-24T14:30:19;13.30;97.40
47520;DHT22;33252;48.122;11.538;2023-03-24T14:32:48;13.30;97.30
47520;DHT22;33252;48.122;11.538;2023-03-24T14:37:56;13.40;96.40
47520;DHT22;33252;48.122;11.538;2023-03-24T14:40:38;13.40;95.80
47520;DHT22;33252;48.122;11.538;2023-03-24T14:43:27;13.40;95.40
47520;DHT22;33252;48.122;11.538;2023-03-24T14:45:54;13.40;95.30
47520;DHT22;33252;48.122;11.538;2023-03-24T14:48:27;13.40;95.20
47520;DHT22;33252;48.122;11.538;2023-03-24T14:50:53;13.40;95.40
47520;DHT22;33252;48.122;11.538;2023-03-24T14:53:22;13.40;95.00
47520;DHT22;33252;48.122;11.538;2023-03-24T14:55:48;13.40;95.50
47520;DHT22;33252;48.122;11.538;2023-03-24T14:58:31;13.50;94.80
47520;DHT22;33252;48.122;11.538;2023-03-24T15:01:02;13.40;95.70
47520;DHT22;33252;48.122;11.538;2023-03-24T15:04:00;13.30;95.70
47520;DHT22;33252;48.122;11.538;2023-03-24T15:06:26;13.30;95.80
47520;DHT22;33252;48.122;11.538;2023-03-24T15:08:56;13.30;95.40
47520;DHT22;33252;48.122;11.538;2023-03-24T15:11:35;13.30;95.60
47520;DHT22;33252;48.122;11.538;2023-03-24T15:14:04;13.30;95.30
47520;DHT22;33252;48.122;11.538;2023-03-24T15:16:32;13.30;95.00
47520;DHT22;33252;48.122;11.538;2023-03-24T15:21:36;13.20;95.00
47520;DHT22;33252;48.122;11.538;2023-03-24T15:24:26;13.20;95.00
47520;DHT22;33252;48.122;11.538;2023-03-24T15:29:41;13.10;95.30
47520;DHT22;33252;48.122;11.538;2023-03-24T15:32:16;13.10;95.10
47520;DHT22;33252;48.122;11.538;2023-03-24T15:34:50;13.00;95.30
47520;DHT22;33252;48.122;11.538;2023-03-24T15:37:29;13.00;95.20
47520;DHT22;33252;48.122;11.538;2023-03-24T15:39:56;13.00;95.10
47520;DHT22;33252;48.122;11.538;2023-03-24T15:42:23;13.00;95.40
47520;DHT22;33252;48.122;11.538;2023-03-24T15:44:49;13.00;95.20
47520;DHT22;33252;48.122;11.538;2023-03-24T15:47:27;13.00;95.30
47520;DHT22;33252;48.122;11.538;2023-03-24T15:49:56;13.00;95.10
47520;DHT22;33252;48.122;11.538;2023-03-24T15:52:31;13.00;94.90
47520;DHT22;33252;48.122;11.538;2023-03-24T15:57:49;12.90;95.00
47520;DHT22;33252;48.122;11.538;2023-03-24T16:00:17;12.80;95.10
47520;DHT22;33252;48.122;11.538;2023-03-24T16:02:48;12.80;95.00
47520;DHT22;33252;48.122;11.538;2023-03-24T16:05:27;12.70;95.70
47520;DHT22;33252;48.122;11.538;2023-03-24T16:08:01;12.60;96.30
47520;DHT22;33252;48.122;11.538;2023-03-24T16:10:32;12.50;97.80
47520;DHT22;33252;48.122;11.538;2023-03-24T16:13:24;12.10;98.10
47520;DHT22;33252;48.122;11.538;2023-03-24T16:18:21;11.80;99.90
47520;DHT22;33252;48.122;11.538;2023-03-24T16:20:48;11.60;99.90
47520;DHT22;33252;48.122;11.538;2023-03-24T16:23:16;11.60;99.90
47520;DHT22;33252;48.122;11.538;2023-03-24T16:25:42;11.30;99.90
47520;DHT22;33252;48.122;11.538;2023-03-24T16:28:18;11.30;99.90
47520;DHT22;33252;48.122;11.538;2023-03-24T16:30:55;11.30;99.90
47520;DHT22;33252;48.122;11.538;2023-03-24T16:33:22;11.40;99.90
47520;DHT22;33252;48.122;11.538;2023-03-24T16:35:48;11.20;99.90
47520;DHT22;33252;48.122;11.538;2023-03-24T16:38:14;11.10;99.90
47520;DHT22;33252;48.122;11.538;2023-03-24T16:40:48;11.00;99.90
47520;DHT22;33252;48.122;11.538;2023-03-24T16:43:14;11.10;99.90
47520;DHT22;33252;48.122;11.538;2023-03-24T16:45:41;11.00;99.90
47520;DHT22;33252;48.122;11.538;2023-03-24T16:48:09;11.00;99.90
47520;DHT22;33252;48.122;11.538;2023-03-24T16:50:38;11.00;99.90
47520;DHT22;33252;48.122;11.538;2023-03-24T16:53:05;11.00;99.90
47520;DHT22;33252;48.122;11.538;2023-03-24T16:55:37;11.00;99.90
47520;DHT22;33252;48.122;11.538;2023-03-24T16:58:04;11.00;99.90
47520;DHT22;33252;48.122;11.538;2023-03-24T17:00:30;10.90;99.90
47520;DHT22;33252;48.122;11.538;2023-03-24T17:02:57;11.00;99.90
47520;DHT22;33252;48.122;11.538;2023-03-24T17:05:29;10.90;99.90
47520;DHT22;33252;48.122;11.538;2023-03-24T17:07:56;10.80;99.90
47520;DHT22;33252;48.122;11.538;2023-03-24T17:10:23;10.80;99.90
47520;DHT22;33252;48.122;11.538;2023-03-24T17:12:52;10.90;99.90
47520;DHT22;33252;48.122;11.538;2023-03-24T17:15:24;10.70;99.90
47520;DHT22;33252;48.122;11.538;2023-03-24T17:17:50;10.90;99.90
47520;DHT22;33252;48.122;11.538;2023-03-24T17:20:17;10.80;99.90
47520;DHT22;33252;48.122;11.538;2023-03-24T17:22:45;10.80;99.90
47520;DHT22;33252;48.122;11.538;2023-03-24T17:25:13;10.90;99.90
47520;DHT22;33252;48.122;11.538;2023-03-24T17:27:40;10.80;99.90
47520;DHT22;33252;48.122;11.538;2023-03-24T17:30:06;10.90;99.90
47520;DHT22;33252;48.122;11.538;2023-03-24T17:32:33;10.90;99.90
47520;DHT22;33252;48.122;11.538;2023-03-24T17:34:59;10.80;99.90
47520;DHT22;33252;48.122;11.538;2023-03-24T17:37:29;10.80;99.90
47520;DHT22;33252;48.122;11.538;2023-03-24T17:39:55;10.80;99.90
47520;DHT22;33252;48.122;11.538;2023-03-24T17:42:23;10.80;99.90
47520;DHT22;33252;48.122;11.538;2023-03-24T17:44:50;10.80;99.90
47520;DHT22;33252;48.122;11.538;2023-03-24T17:47:16;10.70;99.90
47520;DHT22;33252;48.122;11.538;2023-03-24T17:49:42;10.80;99.90
47520;DHT22;33252;48.122;11.538;2023-03-24T17:52:07;10.80;99.90
47520;DHT22;33252;48.122;11.538;2023-03-24T17:54:33;10.70;99.90
47520;DHT22;33252;48.122;11.538;2023-03-24T17:56:59;10.80;99.90
47520;DHT22;33252;48.122;11.538;2023-03-24T17:59:25;10.80;99.90
47520;DHT22;33252;48.122;11.538;2023-03-24T18:01:50;10.80;99.90
47520;DHT22;33252;48.122;11.538;2023-03-24T18:04:16;10.80;99.90
47520;DHT22;33252;48.122;11.538;2023-03-24T18:06:42;10.70;99.90
47520;DHT22;33252;48.122;11.538;2023-03-24T18:09:09;10.80;99.90
47520;DHT22;33252;48.122;11.538;2023-03-24T18:11:34;10.80;99.90
47520;DHT22;33252;48.122;11.538;2023-03-24T18:14:00;10.80;99.90